createdAt,value
2022-10-19T00:01:20.076Z,9.90
2022-10-19T00:03:53.209Z,12.48
2022-10-19T00:06:31.253Z,17.67
2022-10-19T00:09:07.101Z,15.15
2022-10-19T00:11:37.431Z,15.13
2022-10-19T00:14:06.487Z,13.48
2022-10-19T00:16:37.767Z,11.70
2022-10-19T00:19:12.226Z,15.80
2022-10-19T00:21:40.026Z,17.77
2022-10-19T00:24:10.752Z,13.23
2022-10-19T00:26:38.126Z,10.65
2022-10-19T00:29:06.913Z,14.77
2022-10-19T00:31:34.984Z,11.77
2022-10-19T00:34:04.711Z,12.10
2022-10-19T00:36:35.735Z,13.00
2022-10-19T00:39:08.434Z,19.27
2022-10-19T00:41:36.817Z,13.07
2022-10-19T00:44:15.963Z,17.30
2022-10-19T00:46:49.467Z,17.23
2022-10-19T00:49:25.216Z,10.07
2022-10-19T00:52:02.974Z,13.02
2022-10-19T00:54:36.354Z,9.35
2022-10-19T00:57:07.610Z,9.07
2022-10-19T00:59:36.582Z,9.45
2022-10-19T01:02:08.098Z,15.55
2022-10-19T01:04:40.512Z,10.90
2022-10-19T01:07:09.274Z,11.60
2022-10-19T01:09:36.433Z,17.42
2022-10-19T01:12:35.382Z,9.45
2022-10-19T01:15:27.035Z,8.63
2022-10-19T01:18:24.251Z,13.07
2022-10-19T01:21:15.190Z,20.05
2022-10-19T01:24:42.514Z,9.02
2022-10-19T01:27:27.601Z,11.80
2022-10-19T01:29:57.231Z,12.48
2022-10-19T01:32:37.565Z,10.30
2022-10-19T01:35:17.378Z,10.18
2022-10-19T01:38:11.358Z,9.30
2022-10-19T01:40:52.083Z,10.23
2022-10-19T01:43:25.987Z,9.10
2022-10-19T01:46:14.111Z,8.48
2022-10-19T01:48:51.533Z,10.15
2022-10-19T01:51:25.727Z,12.93
2022-10-19T01:53:57.443Z,9.10
2022-10-19T01:56:28.067Z,15.27
2022-10-19T01:58:58.796Z,18.80
2022-10-19T02:01:31.477Z,10.27
2022-10-19T02:03:59.553Z,10.07
2022-10-19T02:06:27.065Z,11.50
2022-10-19T02:08:54.873Z,15.77
2022-10-19T02:11:23.146Z,7.68
2022-10-19T02:14:01.680Z,9.43
2022-10-19T02:16:42.497Z,10.68
2022-10-19T02:19:13.388Z,8.55
2022-10-19T02:21:41.021Z,12.70
2022-10-19T02:24:08.185Z,13.80
2022-10-19T02:26:39.079Z,12.25
2022-10-19T02:29:06.721Z,8.80
2022-10-19T02:31:34.227Z,7.15
2022-10-19T02:34:01.952Z,14.68
2022-10-19T02:36:29.327Z,14.82
2022-10-19T02:38:56.562Z,6.10
2022-10-19T02:42:05.955Z,8.20
2022-10-19T02:45:05.597Z,6.38
2022-10-19T02:47:38.749Z,11.25
2022-10-19T02:50:08.617Z,11.43
2022-10-19T02:52:40.711Z,12.15
2022-10-19T02:55:08.956Z,7.90
2022-10-19T02:57:36.946Z,8.63
2022-10-19T03:00:08.325Z,12.57
2022-10-19T03:02:35.935Z,9.60
2022-10-19T03:05:07.084Z,9.48
2022-10-19T03:07:34.780Z,8.38
2022-10-19T03:10:02.253Z,11.25
2022-10-19T03:12:31.584Z,11.65
2022-10-19T03:14:58.704Z,17.08
2022-10-19T03:17:25.805Z,11.23
2022-10-19T03:19:52.991Z,8.75
2022-10-19T03:22:20.038Z,8.50
2022-10-19T03:24:47.241Z,11.68
2022-10-19T03:27:14.489Z,11.73
2022-10-19T03:29:41.546Z,6.32
2022-10-19T03:32:11.263Z,13.15
2022-10-19T03:34:38.296Z,9.52
2022-10-19T03:37:05.452Z,7.53
2022-10-19T03:39:32.585Z,10.85
2022-10-19T03:41:59.766Z,5.75
2022-10-19T03:44:26.873Z,10.73
2022-10-19T03:46:54.029Z,7.20
2022-10-19T03:49:21.346Z,9.13
2022-10-19T03:51:48.690Z,11.38
2022-10-19T03:54:17.637Z,14.70
2022-10-19T03:56:44.996Z,9.35
2022-10-19T03:59:14.834Z,9.77
2022-10-19T04:01:46.438Z,8.35
2022-10-19T04:04:17.197Z,13.38
2022-10-19T04:06:50.097Z,7.38
2022-10-19T04:09:20.229Z,13.68
2022-10-19T04:11:48.392Z,11.90
2022-10-19T04:14:31.747Z,9.48
2022-10-19T04:17:04.536Z,10.70
2022-10-19T04:19:32.784Z,8.27
2022-10-19T04:22:01.802Z,11.25
2022-10-19T04:24:29.323Z,13.77
2022-10-19T04:26:58.892Z,8.32
2022-10-19T04:29:29.836Z,13.48
2022-10-19T04:31:58.509Z,15.55
2022-10-19T04:34:25.638Z,12.80
2022-10-19T04:36:55.269Z,9.25
2022-10-19T04:39:22.306Z,8.23
2022-10-19T04:41:49.395Z,12.68
2022-10-19T04:44:16.587Z,13.77
2022-10-19T04:46:43.712Z,9.63
2022-10-19T04:49:10.782Z,10.98
2022-10-19T04:51:37.806Z,9.82
2022-10-19T04:54:05.309Z,11.52
2022-10-19T04:56:32.750Z,9.57
2022-10-19T04:59:00.949Z,15.38
2022-10-19T05:01:30.682Z,12.35
2022-10-19T05:03:58.089Z,8.85
2022-10-19T05:06:26.156Z,12.70
2022-10-19T05:08:53.532Z,9.32
2022-10-19T05:11:21.628Z,16.50
2022-10-19T05:13:49.615Z,11.98
2022-10-19T05:16:22.786Z,7.70
2022-10-19T05:18:52.043Z,8.65
2022-10-19T05:21:21.887Z,8.27
2022-10-19T05:23:55.266Z,8.68
2022-10-19T05:26:25.816Z,11.25
2022-10-19T05:29:04.819Z,10.90
2022-10-19T05:31:34.052Z,10.48
2022-10-19T05:34:04.165Z,11.57
2022-10-19T05:36:37.669Z,12.10
2022-10-19T05:39:14.466Z,17.38
2022-10-19T05:41:47.586Z,11.45
2022-10-19T05:44:21.461Z,6.82
2022-10-19T05:46:50.495Z,8.85
2022-10-19T05:49:20.929Z,8.13
2022-10-19T05:51:49.033Z,8.82
2022-10-19T05:54:16.975Z,6.22
2022-10-19T05:56:44.795Z,6.68
2022-10-19T05:59:17.926Z,7.20
2022-10-19T06:01:46.356Z,9.38
2022-10-19T06:06:43.704Z,6.05
2022-10-19T06:09:11.699Z,5.47
2022-10-19T06:11:41.810Z,5.07
2022-10-19T06:14:14.525Z,9.23
2022-10-19T06:16:41.827Z,9.73
2022-10-19T06:19:09.155Z,5.60
2022-10-19T06:21:36.275Z,12.05
2022-10-19T06:24:06.558Z,8.05
2022-10-19T06:26:35.550Z,8.60
2022-10-19T06:29:03.961Z,5.88
2022-10-19T06:31:34.294Z,5.43
2022-10-19T06:34:01.723Z,9.43
2022-10-19T06:36:31.327Z,7.15
2022-10-19T06:38:59.844Z,9.02
2022-10-19T06:41:27.808Z,7.35
2022-10-19T06:43:55.881Z,6.82
2022-10-19T06:46:25.162Z,5.68
2022-10-19T06:49:01.777Z,6.55
2022-10-19T06:51:32.331Z,7.85
2022-10-19T06:53:59.745Z,8.75
2022-10-19T06:56:27.420Z,8.48
2022-10-19T06:58:58.378Z,6.47
2022-10-19T07:01:26.102Z,7.93
2022-10-19T07:03:55.730Z,5.38
2022-10-19T07:06:24.017Z,7.03
2022-10-19T07:08:52.489Z,4.70
2022-10-19T07:11:22.741Z,5.10
2022-10-19T07:13:52.194Z,7.30
2022-10-19T07:16:21.245Z,8.98
2022-10-19T07:18:51.345Z,7.82
2022-10-19T07:21:20.367Z,4.80
2022-10-19T07:23:48.563Z,7.40
2022-10-19T07:26:28.884Z,7.63
2022-10-19T07:28:57.526Z,9.48
2022-10-19T07:31:26.780Z,6.80
2022-10-19T07:34:00.230Z,8.07
2022-10-19T07:36:29.609Z,8.40
2022-10-19T07:38:57.171Z,7.40
2022-10-19T07:41:26.741Z,6.70
2022-10-19T07:43:54.943Z,9.18
2022-10-19T07:46:33.500Z,4.13
2022-10-19T07:49:01.186Z,4.72
2022-10-19T07:53:58.169Z,5.57
2022-10-19T07:56:27.808Z,2.13
2022-10-19T07:58:57.556Z,3.95
2022-10-19T08:01:31.848Z,3.35
2022-10-19T08:06:47.836Z,4.20
2022-10-19T08:09:33.436Z,5.72
2022-10-19T08:12:02.992Z,7.88
2022-10-19T08:14:32.750Z,4.57
2022-10-19T08:17:01.054Z,3.25
2022-10-19T08:19:28.516Z,4.45
2022-10-19T08:21:55.667Z,2.08
2022-10-19T08:24:22.880Z,1.90
2022-10-19T08:26:51.408Z,3.42
2022-10-19T08:29:24.585Z,3.90
2022-10-19T08:31:58.171Z,7.03
2022-10-19T08:34:25.539Z,2.75
2022-10-19T08:36:52.847Z,4.22
2022-10-19T08:39:20.017Z,13.57
2022-10-19T08:42:03.900Z,3.83
2022-10-19T08:44:49.686Z,1.70
2022-10-19T08:47:43.729Z,2.15
2022-10-19T08:50:26.050Z,1.42
2022-10-19T08:55:45.390Z,2.22
2022-10-19T08:58:47.628Z,3.30
2022-10-19T09:02:14.205Z,3.28
2022-10-19T09:04:49.262Z,2.30
2022-10-19T09:07:34.937Z,1.63
2022-10-19T09:10:14.817Z,2.80
2022-10-19T09:13:01.477Z,5.97
2022-10-19T09:15:51.606Z,2.13
2022-10-19T09:18:28.332Z,2.45
2022-10-19T09:21:15.980Z,1.80
2022-10-19T09:24:32.132Z,2.22
2022-10-19T09:27:03.512Z,1.65
2022-10-19T09:29:50.084Z,1.95
2022-10-19T09:32:29.667Z,5.03
2022-10-19T09:35:22.557Z,5.85
2022-10-19T09:37:51.343Z,7.38
2022-10-19T09:40:22.715Z,8.48
2022-10-19T09:42:57.293Z,14.27
2022-10-19T09:45:33.867Z,3.70
2022-10-19T09:48:12.825Z,4.97
2022-10-19T09:50:44.603Z,1.63
2022-10-19T09:53:20.956Z,1.90
2022-10-19T09:56:27.157Z,3.67
2022-10-19T09:58:59.046Z,1.90
2022-10-19T10:01:43.851Z,2.30
2022-10-19T10:04:18.613Z,3.55
2022-10-19T10:06:51.694Z,2.47
2022-10-19T10:09:26.316Z,3.13
2022-10-19T10:11:57.448Z,2.35
2022-10-19T10:14:40.146Z,2.42
2022-10-19T10:17:21.893Z,5.25
2022-10-19T10:23:04.451Z,7.43
2022-10-19T10:25:35.220Z,3.45
2022-10-19T10:28:15.450Z,2.93
2022-10-19T10:30:44.898Z,3.22
2022-10-19T10:33:43.802Z,0.70
2022-10-19T10:36:12.775Z,2.50
2022-10-19T10:41:54.115Z,0.80
2022-10-19T10:44:30.971Z,1.10
2022-10-19T10:47:18.099Z,0.98
2022-10-19T10:50:02.900Z,1.25
2022-10-19T10:52:31.675Z,1.05
2022-10-19T10:55:04.679Z,1.38
2022-10-19T10:57:47.247Z,2.42
2022-10-19T11:00:22.642Z,2.00
2022-10-19T11:03:23.648Z,3.42
2022-10-19T11:05:58.443Z,1.10
2022-10-19T11:08:28.261Z,3.13
2022-10-19T11:11:23.953Z,2.72
2022-10-19T11:14:02.085Z,3.45
2022-10-19T11:16:42.932Z,2.72
2022-10-19T11:19:19.304Z,1.37
2022-10-19T11:22:15.664Z,1.98
2022-10-19T11:26:09.822Z,3.30
2022-10-19T11:33:46.229Z,2.13
2022-10-19T11:37:03.193Z,3.53
2022-10-19T11:39:52.945Z,2.60
2022-10-19T11:43:04.876Z,1.45
2022-10-19T11:46:16.711Z,3.72
2022-10-19T11:52:20.496Z,2.28
2022-10-19T11:54:56.377Z,6.07
2022-10-19T12:01:03.327Z,0.45
2022-10-19T12:03:56.191Z,2.25
2022-10-19T12:07:28.185Z,1.45
2022-10-19T12:10:34.349Z,5.68
2022-10-19T12:13:10.932Z,0.63
2022-10-19T12:15:53.831Z,2.55
2022-10-19T12:18:40.128Z,2.58
2022-10-19T12:21:39.443Z,3.60
2022-10-19T12:24:16.293Z,1.05
2022-10-19T12:26:45.463Z,0.88
2022-10-19T12:29:26.948Z,6.53
2022-10-19T12:31:56.300Z,1.70
2022-10-19T12:34:47.847Z,2.97
2022-10-19T12:37:49.978Z,1.80
2022-10-19T12:40:47.971Z,4.07
2022-10-19T12:44:05.984Z,1.27
2022-10-19T12:46:53.845Z,0.98
2022-10-19T12:49:51.160Z,0.50
2022-10-19T12:52:52.374Z,2.60
2022-10-19T12:55:26.760Z,1.45
2022-10-19T12:58:06.643Z,4.13
2022-10-19T13:00:37.593Z,1.52
2022-10-19T13:03:15.829Z,1.07
2022-10-19T13:05:56.352Z,6.50
2022-10-19T13:08:54.387Z,0.88
2022-10-19T13:11:22.477Z,1.73
2022-10-19T13:14:00.189Z,1.13
2022-10-19T13:16:30.277Z,1.33
2022-10-19T13:19:00.434Z,1.48
2022-10-19T13:21:51.082Z,0.98
2022-10-19T13:24:24.168Z,2.92
2022-10-19T13:27:03.243Z,0.90
2022-10-19T13:29:39.703Z,0.95
2022-10-19T13:32:45.318Z,2.63
2022-10-19T13:35:35.557Z,1.88
2022-10-19T13:38:18.366Z,0.77
2022-10-19T13:40:48.353Z,9.65
2022-10-19T13:43:30.938Z,10.00
2022-10-19T13:46:23.127Z,1.90
2022-10-19T13:49:18.446Z,10.40
2022-10-19T13:51:54.312Z,5.47
2022-10-19T13:55:18.653Z,8.95
2022-10-19T13:58:00.565Z,4.20
2022-10-19T14:00:55.041Z,5.80
2022-10-19T14:04:36.633Z,7.63
2022-10-19T14:07:30.313Z,8.25
2022-10-19T14:10:08.412Z,11.23
2022-10-19T14:12:39.649Z,2.55
2022-10-19T14:15:35.101Z,2.83
2022-10-19T14:18:05.118Z,2.25
2022-10-19T14:20:39.125Z,3.67
2022-10-19T14:23:28.780Z,6.40
2022-10-19T14:26:22.062Z,2.20
2022-10-19T14:28:55.204Z,4.68
2022-10-19T14:31:35.524Z,5.05
2022-10-19T14:34:07.510Z,1.38
2022-10-19T14:36:39.727Z,2.67
2022-10-19T14:39:24.159Z,3.35
2022-10-19T14:41:55.852Z,3.85
2022-10-19T14:44:44.709Z,1.33
2022-10-19T14:47:30.435Z,1.63
2022-10-19T14:49:57.972Z,1.55
2022-10-19T14:52:38.425Z,8.18
2022-10-19T14:55:16.854Z,1.13
2022-10-19T14:57:49.128Z,1.95
2022-10-19T15:00:23.729Z,2.67
2022-10-19T15:03:03.985Z,3.88
2022-10-19T15:05:37.880Z,8.77
2022-10-19T15:08:16.680Z,11.02
2022-10-19T15:10:47.194Z,5.70
2022-10-19T15:13:27.105Z,9.25
2022-10-19T15:15:55.931Z,17.30
2022-10-19T15:18:48.244Z,4.13
2022-10-19T15:21:20.992Z,2.97
2022-10-19T15:23:53.093Z,1.30
2022-10-19T15:26:28.984Z,1.92
2022-10-19T15:29:19.469Z,1.38
2022-10-19T15:31:46.581Z,3.42
2022-10-19T15:34:32.990Z,5.43
2022-10-19T15:37:01.623Z,1.40
2022-10-19T15:39:39.753Z,0.77
2022-10-19T15:42:36.712Z,1.15
2022-10-19T15:45:42.030Z,1.88
2022-10-19T15:48:23.038Z,1.17
2022-10-19T15:50:55.152Z,4.80
2022-10-19T15:53:23.028Z,18.40
2022-10-19T15:55:52.518Z,2.42
2022-10-19T15:58:21.191Z,2.17
2022-10-19T16:00:48.393Z,1.55
2022-10-19T16:03:16.469Z,2.30
2022-10-19T16:05:43.705Z,4.55
2022-10-19T16:08:12.489Z,4.63
2022-10-19T16:10:39.732Z,2.50
2022-10-19T16:13:06.899Z,2.47
2022-10-19T16:15:33.998Z,1.83
2022-10-19T16:18:01.354Z,3.60
2022-10-19T16:20:32.214Z,4.97
2022-10-19T16:23:01.537Z,2.55
2022-10-19T16:25:28.918Z,1.35
2022-10-19T16:27:56.024Z,0.93
2022-10-19T16:30:23.170Z,1.60
2022-10-19T16:32:50.938Z,2.10
2022-10-19T16:35:18.057Z,2.60
2022-10-19T16:37:45.099Z,1.85
2022-10-19T16:40:12.405Z,1.83
2022-10-19T16:42:39.494Z,2.17
2022-10-19T16:45:07.280Z,1.23
2022-10-19T16:47:34.353Z,2.83
2022-10-19T16:50:03.609Z,1.23
2022-10-19T16:52:33.261Z,4.15
2022-10-19T16:55:01.023Z,2.45
2022-10-19T16:57:28.290Z,7.35
2022-10-19T16:59:59.745Z,6.90
2022-10-19T17:02:26.927Z,4.03
2022-10-19T17:04:56.535Z,5.38
2022-10-19T17:07:24.371Z,6.85
2022-10-19T17:09:54.688Z,5.28
2022-10-19T17:12:22.183Z,4.65
2022-10-19T17:14:49.349Z,5.32
2022-10-19T17:17:17.293Z,4.43
2022-10-19T17:19:47.746Z,3.55
2022-10-19T17:22:15.064Z,5.68
2022-10-19T17:24:46.386Z,5.25
2022-10-19T17:27:13.454Z,4.68
2022-10-19T17:29:43.056Z,5.55
2022-10-19T17:32:10.234Z,20.35
2022-10-19T17:34:37.360Z,23.38
2022-10-19T17:37:04.641Z,11.48
2022-10-19T17:39:32.128Z,10.75
2022-10-19T17:42:03.408Z,8.30
2022-10-19T17:44:31.592Z,7.85
2022-10-19T17:47:03.522Z,7.65
2022-10-19T17:49:30.565Z,10.10
2022-10-19T17:51:58.087Z,5.63
2022-10-19T17:54:25.302Z,6.45
2022-10-19T17:56:53.208Z,4.60
2022-10-19T17:59:30.332Z,3.97
2022-10-19T18:02:03.334Z,6.38
2022-10-19T18:04:30.422Z,6.18
2022-10-19T18:06:57.523Z,4.07
2022-10-19T18:09:24.696Z,5.28
2022-10-19T18:11:51.762Z,4.03
2022-10-19T18:14:18.828Z,7.90
2022-10-19T18:16:47.381Z,10.93
2022-10-19T18:19:16.658Z,7.32
2022-10-19T18:21:46.466Z,9.63
2022-10-19T18:24:21.713Z,5.00
2022-10-19T18:26:50.696Z,4.53
2022-10-19T18:29:27.637Z,8.50
2022-10-19T18:31:59.328Z,5.20
2022-10-19T18:34:27.950Z,14.73
2022-10-19T18:36:55.348Z,11.80
2022-10-19T18:39:23.216Z,6.50
2022-10-19T18:41:56.847Z,4.47
2022-10-19T18:44:27.096Z,4.28
2022-10-19T18:46:57.250Z,5.35
2022-10-19T18:49:25.241Z,5.63
2022-10-19T18:51:55.379Z,8.88
2022-10-19T18:54:27.954Z,7.63
2022-10-19T18:56:55.702Z,8.43
2022-10-19T18:59:25.270Z,8.85
2022-10-19T19:01:52.538Z,5.97
2022-10-19T19:04:19.960Z,6.15
2022-10-19T19:06:47.152Z,8.10
2022-10-19T19:09:14.320Z,7.97
2022-10-19T19:11:41.664Z,6.22
2022-10-19T19:14:13.654Z,7.22
2022-10-19T19:16:42.493Z,5.70
2022-10-19T19:19:12.006Z,9.05
2022-10-19T19:21:41.883Z,6.00
2022-10-19T19:24:10.603Z,10.20
2022-10-19T19:26:42.098Z,12.57
2022-10-19T19:29:09.610Z,15.20
2022-10-19T19:31:41.192Z,13.10
2022-10-19T19:34:09.519Z,12.93
2022-10-19T19:36:38.184Z,16.45
2022-10-19T19:39:06.160Z,15.65
2022-10-19T19:41:34.291Z,18.08
2022-10-19T19:44:09.592Z,16.50
2022-10-19T19:46:37.918Z,14.35
2022-10-19T19:49:05.585Z,18.45
2022-10-19T19:51:33.528Z,18.00
2022-10-19T19:54:00.777Z,19.73
2022-10-19T19:56:29.123Z,17.38
2022-10-19T19:58:59.403Z,16.02
2022-10-19T20:01:29.480Z,17.20
2022-10-19T20:03:59.316Z,19.15
2022-10-19T20:06:26.734Z,26.83
2022-10-19T20:08:56.469Z,23.50
2022-10-19T20:11:28.746Z,25.17
2022-10-19T20:16:29.247Z,25.67
2022-10-19T20:19:05.384Z,33.70
2022-10-19T20:21:33.780Z,30.92
2022-10-19T20:24:01.566Z,27.35
2022-10-19T20:26:33.548Z,36.22
2022-10-19T20:29:08.727Z,28.92
2022-10-19T20:31:39.672Z,35.33
2022-10-19T20:34:14.067Z,29.00
2022-10-19T20:36:44.539Z,29.13
2022-10-19T20:39:14.721Z,34.03
2022-10-19T20:41:42.013Z,29.15
2022-10-19T20:44:09.123Z,32.22
2022-10-19T20:46:37.216Z,35.45
2022-10-19T20:49:08.636Z,44.10
2022-10-19T20:51:36.976Z,42.70
2022-10-19T20:54:12.280Z,42.28
2022-10-19T20:56:41.355Z,37.60
2022-10-19T20:59:16.217Z,47.15
2022-10-19T21:01:45.373Z,43.40
2022-10-19T21:04:14.367Z,40.05
2022-10-19T21:06:48.165Z,44.40
2022-10-19T21:09:19.304Z,41.92
2022-10-19T21:11:48.369Z,46.30
2022-10-19T21:14:25.285Z,46.38
2022-10-19T21:16:59.791Z,42.78
2022-10-19T21:19:29.541Z,53.42
2022-10-19T21:22:02.290Z,54.33
2022-10-19T21:24:36.096Z,46.95
2022-10-19T21:27:07.606Z,48.38
2022-10-19T21:29:36.052Z,47.65
2022-10-19T21:32:04.158Z,48.33
2022-10-19T21:34:38.233Z,44.25
2022-10-19T21:37:14.682Z,49.22
2022-10-19T21:39:52.763Z,48.33
2022-10-19T21:42:30.376Z,50.72
2022-10-19T21:45:06.277Z,51.85
2022-10-19T21:47:39.151Z,47.58
2022-10-19T21:50:08.763Z,46.63
2022-10-19T21:52:36.310Z,46.30
2022-10-19T21:55:03.637Z,43.67
2022-10-19T21:57:30.804Z,40.58
2022-10-19T21:59:57.888Z,40.22
2022-10-19T22:02:24.916Z,44.20
2022-10-19T22:04:52.093Z,34.22
2022-10-19T22:07:19.201Z,47.15
2022-10-19T22:09:46.303Z,41.42
2022-10-19T22:14:45.380Z,39.28
2022-10-19T22:17:16.125Z,38.70
2022-10-19T22:19:43.380Z,30.85
2022-10-19T22:22:10.420Z,29.88
2022-10-19T22:24:37.685Z,30.25
2022-10-19T22:27:04.787Z,36.70
2022-10-19T22:29:31.877Z,35.97
2022-10-19T22:31:59.189Z,32.92
2022-10-19T22:34:26.283Z,30.40
2022-10-19T22:36:53.472Z,34.58
2022-10-19T22:39:20.830Z,32.13
2022-10-19T22:43:06.139Z,30.35
2022-10-19T22:45:33.986Z,25.80
2022-10-19T22:48:01.035Z,36.53
2022-10-19T22:50:28.122Z,36.70
2022-10-19T22:52:55.354Z,34.20
2022-10-19T22:55:22.499Z,27.85
2022-10-19T22:57:52.158Z,32.22
2022-10-19T23:00:21.706Z,27.98
2022-10-19T23:02:48.906Z,34.22
2022-10-19T23:05:19.080Z,32.53
2022-10-19T23:07:46.171Z,33.28
2022-10-19T23:10:13.398Z,33.50
2022-10-19T23:12:43.088Z,34.65
2022-10-19T23:15:10.856Z,36.15
2022-10-19T23:17:38.112Z,36.47
2022-10-19T23:20:11.226Z,35.65
2022-10-19T23:22:38.678Z,36.67
2022-10-19T23:25:06.872Z,34.17
2022-10-19T23:27:35.312Z,33.38
2022-10-19T23:30:05.527Z,31.02
2022-10-19T23:32:32.635Z,34.63
2022-10-19T23:35:04.091Z,32.72
2022-10-19T23:37:31.295Z,31.48
2022-10-19T23:39:58.353Z,34.72
2022-10-19T23:42:28.084Z,31.20
2022-10-19T23:44:55.254Z,26.92
2022-10-19T23:47:22.485Z,34.10
2022-10-19T23:49:51.618Z,30.80
2022-10-19T23:52:18.736Z,34.17
2022-10-19T23:54:48.258Z,31.15
2022-10-19T23:57:15.387Z,34.05
2022-10-19T23:59:42.460Z,29.13
